sensor_id;sensor_type;location;lat;lon;timestamp;pressure;altitude;pressure_sealevel;temperature;humidity
16255;BME280;8235;52.198;9.904;2022-11-15T00:00:26;100423.16;;;6.81;96.11
16255;BME280;8235;52.198;9.904;2022-11-15T00:02:55;100424.38;;;6.76;96.16
16255;BME280;8235;52.198;9.904;2022-11-15T00:05:22;100426.47;;;6.69;95.82
16255;BME280;8235;52.198;9.904;2022-11-15T00:07:48;100414.31;;;6.65;96.04
16255;BME280;8235;52.198;9.904;2022-11-15T00:10:15;100420.72;;;6.61;96.06
16255;BME280;8235;52.198;9.904;2022-11-15T00:12:44;100426.16;;;6.58;96.10
16255;BME280;8235;52.198;9.904;2022-11-15T00:15:10;100424.44;;;6.57;96.49
16255;BME280;8235;52.198;9.904;2022-11-15T00:17:37;100426.16;;;6.58;96.83
16255;BME280;8235;52.198;9.904;2022-11-15T00:20:06;100412.59;;;6.64;97.22
16255;BME280;8235;52.198;9.904;2022-11-15T00:22:35;100422.81;;;6.72;97.43
16255;BME280;8235;52.198;9.904;2022-11-15T00:25:01;100406.53;;;6.79;97.93
16255;BME280;8235;52.198;9.904;2022-11-15T00:27:28;100414.00;;;6.88;98.75
16255;BME280;8235;52.198;9.904;2022-11-15T00:29:55;100403.88;;;6.96;98.98
16255;BME280;8235;52.198;9.904;2022-11-15T00:32:21;100397.38;;;7.02;99.64
16255;BME280;8235;52.198;9.904;2022-11-15T00:34:48;100406.72;;;7.09;99.75
16255;BME280;8235;52.198;9.904;2022-11-15T00:37:15;100393.16;;;7.15;100.00
16255;BME280;8235;52.198;9.904;2022-11-15T00:39:42;100404.19;;;7.23;100.00
16255;BME280;8235;52.198;9.904;2022-11-15T00:42:08;100410.09;;;7.28;100.00
16255;BME280;8235;52.198;9.904;2022-11-15T00:44:35;100400.03;;;7.35;100.00
16255;BME280;8235;52.198;9.904;2022-11-15T00:47:01;100393.53;;;7.41;100.00
16255;BME280;8235;52.198;9.904;2022-11-15T00:49:28;100397.75;;;7.45;100.00
16255;BME280;8235;52.198;9.904;2022-11-15T00:51:54;100390.56;;;7.47;100.00
16255;BME280;8235;52.198;9.904;2022-11-15T00:54:22;100391.00;;;7.55;100.00
16255;BME280;8235;52.198;9.904;2022-11-15T00:56:49;100393.06;;;7.65;100.00
16255;BME280;8235;52.198;9.904;2022-11-15T00:59:15;100384.50;;;7.76;100.00
16255;BME280;8235;52.198;9.904;2022-11-15T01:01:42;100382.97;;;7.88;100.00
16255;BME280;8235;52.198;9.904;2022-11-15T01:04:08;100383.38;;;7.96;100.00
16255;BME280;8235;52.198;9.904;2022-11-15T01:06:35;100382.88;;;8.05;100.00
16255;BME280;8235;52.198;9.904;2022-11-15T01:09:01;100380.53;;;8.15;100.00
16255;BME280;8235;52.198;9.904;2022-11-15T01:11:29;100374.72;;;8.24;100.00
16255;BME280;8235;52.198;9.904;2022-11-15T01:13:55;100365.22;;;8.35;100.00
16255;BME280;8235;52.198;9.904;2022-11-15T01:16:22;100361.06;;;8.46;100.00
16255;BME280;8235;52.198;9.904;2022-11-15T01:18:48;100360.53;;;8.55;100.00
16255;BME280;8235;52.198;9.904;2022-11-15T01:21:17;100347.72;;;8.61;100.00
16255;BME280;8235;52.198;9.904;2022-11-15T01:23:44;100342.91;;;8.68;100.00
16255;BME280;8235;52.198;9.904;2022-11-15T01:26:12;100345.97;;;8.76;100.00
16255;BME280;8235;52.198;9.904;2022-11-15T01:28:41;100333.25;;;8.81;100.00
16255;BME280;8235;52.198;9.904;2022-11-15T01:31:11;100341.59;;;8.89;100.00
16255;BME280;8235;52.198;9.904;2022-11-15T01:33:38;100335.63;;;9.00;100.00
16255;BME280;8235;52.198;9.904;2022-11-15T01:36:06;100329.09;;;9.05;100.00
16255;BME280;8235;52.198;9.904;2022-11-15T01:38:33;100325.13;;;9.13;100.00
16255;BME280;8235;52.198;9.904;2022-11-15T01:40:59;100320.25;;;9.19;100.00
16255;BME280;8235;52.198;9.904;2022-11-15T01:43:27;100321.69;;;9.25;100.00
16255;BME280;8235;52.198;9.904;2022-11-15T01:45:59;100320.63;;;9.27;100.00
16255;BME280;8235;52.198;9.904;2022-11-15T01:48:30;100320.53;;;9.29;100.00
16255;BME280;8235;52.198;9.904;2022-11-15T01:50:58;100318.50;;;9.32;100.00
16255;BME280;8235;52.198;9.904;2022-11-15T01:53:26;100317.38;;;9.36;100.00
16255;BME280;8235;52.198;9.904;2022-11-15T01:55:53;100315.38;;;9.40;100.00
16255;BME280;8235;52.198;9.904;2022-11-15T01:58:20;100316.81;;;9.46;100.00
16255;BME280;8235;52.198;9.904;2022-11-15T02:00:47;100317.66;;;9.46;100.00
16255;BME280;8235;52.198;9.904;2022-11-15T02:03:16;100314.81;;;9.49;100.00
16255;BME280;8235;52.198;9.904;2022-11-15T02:05:43;100311.53;;;9.58;100.00
16255;BME280;8235;52.198;9.904;2022-11-15T02:08:10;100313.06;;;9.62;100.00
16255;BME280;8235;52.198;9.904;2022-11-15T02:10:45;100319.91;;;9.66;100.00
16255;BME280;8235;52.198;9.904;2022-11-15T02:13:11;100305.31;;;9.72;100.00
16255;BME280;8235;52.198;9.904;2022-11-15T02:15:43;100299.53;;;9.80;100.00
16255;BME280;8235;52.198;9.904;2022-11-15T02:18:22;100298.28;;;9.85;100.00
16255;BME280;8235;52.198;9.904;2022-11-15T02:21:04;100293.38;;;9.92;100.00
16255;BME280;8235;52.198;9.904;2022-11-15T02:27:29;100285.97;;;9.97;100.00
16255;BME280;8235;52.198;9.904;2022-11-15T02:30:25;100292.78;;;10.01;100.00
16255;BME280;8235;52.198;9.904;2022-11-15T02:32:59;100295.22;;;10.04;99.50
16255;BME280;8235;52.198;9.904;2022-11-15T02:35:32;100288.94;;;10.05;99.76
16255;BME280;8235;52.198;9.904;2022-11-15T02:38:06;100297.69;;;10.07;99.23
16255;BME280;8235;52.198;9.904;2022-11-15T02:40:38;100283.41;;;10.08;99.00
16255;BME280;8235;52.198;9.904;2022-11-15T02:43:10;100289.28;;;10.13;98.99
16255;BME280;8235;52.198;9.904;2022-11-15T02:46:02;100287.38;;;10.15;98.53
16255;BME280;8235;52.198;9.904;2022-11-15T02:48:32;100287.19;;;10.18;98.46
16255;BME280;8235;52.198;9.904;2022-11-15T02:50:59;100283.28;;;10.24;98.34
16255;BME280;8235;52.198;9.904;2022-11-15T02:53:27;100284.78;;;10.28;97.97
16255;BME280;8235;52.198;9.904;2022-11-15T02:55:55;100281.91;;;10.31;97.86
16255;BME280;8235;52.198;9.904;2022-11-15T02:58:34;100283.50;;;10.33;97.45
16255;BME280;8235;52.198;9.904;2022-11-15T03:01:11;100276.47;;;10.32;97.42
16255;BME280;8235;52.198;9.904;2022-11-15T03:03:48;100279.25;;;10.31;97.10
16255;BME280;8235;52.198;9.904;2022-11-15T03:06:28;100280.41;;;10.27;97.11
16255;BME280;8235;52.198;9.904;2022-11-15T03:09:03;100271.66;;;10.25;96.45
16255;BME280;8235;52.198;9.904;2022-11-15T03:11:36;100275.38;;;10.22;96.55
16255;BME280;8235;52.198;9.904;2022-11-15T03:14:10;100278.19;;;10.21;96.06
16255;BME280;8235;52.198;9.904;2022-11-15T03:16:44;100288.81;;;10.21;95.65
16255;BME280;8235;52.198;9.904;2022-11-15T03:19:17;100286.25;;;10.19;95.55
16255;BME280;8235;52.198;9.904;2022-11-15T03:21:46;100280.00;;;10.20;95.44
16255;BME280;8235;52.198;9.904;2022-11-15T03:24:15;100275.38;;;10.22;95.58
16255;BME280;8235;52.198;9.904;2022-11-15T03:26:45;100286.59;;;10.27;95.48
16255;BME280;8235;52.198;9.904;2022-11-15T03:29:16;100279.25;;;10.31;95.49
16255;BME280;8235;52.198;9.904;2022-11-15T03:31:47;100272.97;;;10.32;95.47
16255;BME280;8235;52.198;9.904;2022-11-15T03:34:22;100266.78;;;10.31;95.09
16255;BME280;8235;52.198;9.904;2022-11-15T03:36:50;100272.88;;;10.33;95.02
16255;BME280;8235;52.198;9.904;2022-11-15T03:39:19;100278.00;;;10.36;94.74
16255;BME280;8235;52.198;9.904;2022-11-15T03:41:48;100278.00;;;10.36;94.53
16255;BME280;8235;52.198;9.904;2022-11-15T03:44:21;100285.97;;;10.36;94.48
16255;BME280;8235;52.198;9.904;2022-11-15T03:46:58;100287.78;;;10.36;94.10
16255;BME280;8235;52.198;9.904;2022-11-15T03:49:29;100294.16;;;10.33;93.62
16255;BME280;8235;52.198;9.904;2022-11-15T03:51:58;100291.59;;;10.32;93.30
16255;BME280;8235;52.198;9.904;2022-11-15T03:54:30;100295.22;;;10.31;93.21
16255;BME280;8235;52.198;9.904;2022-11-15T03:57:00;100297.97;;;10.29;93.36
16255;BME280;8235;52.198;9.904;2022-11-15T03:59:26;100291.06;;;10.27;92.96
16255;BME280;8235;52.198;9.904;2022-11-15T04:01:54;100286.78;;;10.24;93.29
16255;BME280;8235;52.198;9.904;2022-11-15T04:04:20;100286.88;;;10.23;93.02
16255;BME280;8235;52.198;9.904;2022-11-15T04:06:47;100285.19;;;10.22;92.77
16255;BME280;8235;52.198;9.904;2022-11-15T04:09:13;100272.00;;;10.20;92.54
16255;BME280;8235;52.198;9.904;2022-11-15T04:11:40;100283.78;;;10.16;92.47
16255;BME280;8235;52.198;9.904;2022-11-15T04:14:06;100291.19;;;10.11;92.10
16255;BME280;8235;52.198;9.904;2022-11-15T04:16:33;100291.50;;;10.06;92.26
16255;BME280;8235;52.198;9.904;2022-11-15T04:19:00;100284.81;;;10.01;92.18
16255;BME280;8235;52.198;9.904;2022-11-15T04:21:41;100292.22;;;9.96;92.14
16255;BME280;8235;52.198;9.904;2022-11-15T04:24:25;100293.47;;;9.90;91.86
16255;BME280;8235;52.198;9.904;2022-11-15T04:26:51;100296.44;;;9.86;91.26
16255;BME280;8235;52.198;9.904;2022-11-15T04:29:18;100291.75;;;9.77;91.33
16255;BME280;8235;52.198;9.904;2022-11-15T04:32:10;100295.63;;;9.71;91.15
16255;BME280;8235;52.198;9.904;2022-11-15T04:34:38;100297.88;;;9.64;91.25
16255;BME280;8235;52.198;9.904;2022-11-15T04:37:07;100290.28;;;9.58;90.99
16255;BME280;8235;52.198;9.904;2022-11-15T04:39:42;100292.28;;;9.55;91.04
16255;BME280;8235;52.198;9.904;2022-11-15T04:42:09;100294.38;;;9.50;91.34
16255;BME280;8235;52.198;9.904;2022-11-15T04:44:36;100292.97;;;9.44;91.05
16255;BME280;8235;52.198;9.904;2022-11-15T04:47:03;100291.47;;;9.40;91.54
16255;BME280;8235;52.198;9.904;2022-11-15T04:49:29;100282.91;;;9.35;91.47
16255;BME280;8235;52.198;9.904;2022-11-15T04:51:57;100285.03;;;9.30;91.42
16255;BME280;8235;52.198;9.904;2022-11-15T04:54:24;100282.66;;;9.25;91.86
16255;BME280;8235;52.198;9.904;2022-11-15T04:56:50;100282.00;;;9.22;92.10
16255;BME280;8235;52.198;9.904;2022-11-15T04:59:17;100279.44;;;9.20;92.04
16255;BME280;8235;52.198;9.904;2022-11-15T05:01:43;100285.81;;;9.18;92.41
16255;BME280;8235;52.198;9.904;2022-11-15T05:04:09;100283.16;;;9.18;92.46
16255;BME280;8235;52.198;9.904;2022-11-15T05:06:45;100279.72;;;9.16;92.51
16255;BME280;8235;52.198;9.904;2022-11-15T05:09:13;100285.25;;;9.13;93.12
16255;BME280;8235;52.198;9.904;2022-11-15T05:11:40;100273.66;;;9.14;93.22
16255;BME280;8235;52.198;9.904;2022-11-15T05:14:06;100289.81;;;9.11;93.07
16255;BME280;8235;52.198;9.904;2022-11-15T05:16:33;100282.78;;;9.10;93.69
16255;BME280;8235;52.198;9.904;2022-11-15T05:18:59;100282.78;;;9.10;93.71
16255;BME280;8235;52.198;9.904;2022-11-15T05:21:26;100288.97;;;9.10;93.43
16255;BME280;8235;52.198;9.904;2022-11-15T05:23:52;100285.34;;;9.11;94.14
16255;BME280;8235;52.198;9.904;2022-11-15T05:26:20;100285.25;;;9.13;94.03
16255;BME280;8235;52.198;9.904;2022-11-15T05:28:46;100277.28;;;9.13;94.42
16255;BME280;8235;52.198;9.904;2022-11-15T05:31:17;100275.38;;;9.15;94.72
16255;BME280;8235;52.198;9.904;2022-11-15T05:33:44;100282.38;;;9.16;94.57
16255;BME280;8235;52.198;9.904;2022-11-15T05:36:15;100276.31;;;9.14;94.39
16255;BME280;8235;52.198;9.904;2022-11-15T05:38:43;100277.38;;;9.11;94.76
16255;BME280;8235;52.198;9.904;2022-11-15T05:41:10;100273.22;;;9.07;94.26
16255;BME280;8235;52.198;9.904;2022-11-15T05:43:40;100275.19;;;9.03;94.23
16255;BME280;8235;52.198;9.904;2022-11-15T05:46:08;100283.34;;;9.00;94.73
16255;BME280;8235;52.198;9.904;2022-11-15T05:48:36;100283.53;;;8.97;94.72
16255;BME280;8235;52.198;9.904;2022-11-15T05:51:04;100282.06;;;8.93;94.51
16255;BME280;8235;52.198;9.904;2022-11-15T05:53:32;100280.44;;;8.91;94.40
16255;BME280;8235;52.198;9.904;2022-11-15T05:55:59;100294.84;;;8.87;94.29
16255;BME280;8235;52.198;9.904;2022-11-15T05:58:26;100287.16;;;8.82;93.95
16255;BME280;8235;52.198;9.904;2022-11-15T06:00:54;100288.09;;;8.81;93.99
16255;BME280;8235;52.198;9.904;2022-11-15T06:03:23;100282.97;;;8.78;94.56
16255;BME280;8235;52.198;9.904;2022-11-15T06:05:50;100286.59;;;8.77;95.07
16255;BME280;8235;52.198;9.904;2022-11-15T06:08:16;100281.16;;;8.79;94.97
16255;BME280;8235;52.198;9.904;2022-11-15T06:10:43;100282.97;;;8.78;94.83
16255;BME280;8235;52.198;9.904;2022-11-15T06:13:09;100268.75;;;8.79;95.45
16255;BME280;8235;52.198;9.904;2022-11-15T06:15:36;100280.31;;;8.78;94.94
16255;BME280;8235;52.198;9.904;2022-11-15T06:18:04;100282.97;;;8.78;95.15
16255;BME280;8235;52.198;9.904;2022-11-15T06:20:30;100288.41;;;8.77;95.35
16255;BME280;8235;52.198;9.904;2022-11-15T06:22:57;100299.97;;;8.76;95.47
16255;BME280;8235;52.198;9.904;2022-11-15T06:25:24;100298.25;;;8.75;95.73
16255;BME280;8235;52.198;9.904;2022-11-15T06:27:51;100299.13;;;8.75;95.70
16255;BME280;8235;52.198;9.904;2022-11-15T06:30:18;100310.78;;;8.73;95.86
16255;BME280;8235;52.198;9.904;2022-11-15T06:32:44;100308.22;;;8.71;95.57
16255;BME280;8235;52.198;9.904;2022-11-15T06:35:12;100310.97;;;8.69;96.01
16255;BME280;8235;52.198;9.904;2022-11-15T06:37:39;100312.75;;;8.69;96.29
16255;BME280;8235;52.198;9.904;2022-11-15T06:40:07;100310.97;;;8.69;96.18
16255;BME280;8235;52.198;9.904;2022-11-15T06:42:34;100311.81;;;8.70;96.00
16255;BME280;8235;52.198;9.904;2022-11-15T06:45:00;100318.16;;;8.67;95.96
16255;BME280;8235;52.198;9.904;2022-11-15T06:47:27;100315.50;;;8.67;96.44
16255;BME280;8235;52.198;9.904;2022-11-15T06:49:53;100314.66;;;8.67;96.75
16255;BME280;8235;52.198;9.904;2022-11-15T06:52:21;100308.47;;;8.66;96.96
16255;BME280;8235;52.198;9.904;2022-11-15T06:54:47;100315.59;;;8.66;97.37
16255;BME280;8235;52.198;9.904;2022-11-15T06:57:14;100307.63;;;8.66;97.28
16255;BME280;8235;52.198;9.904;2022-11-15T06:59:40;100316.44;;;8.66;97.50
16255;BME280;8235;52.198;9.904;2022-11-15T07:02:11;100326.97;;;8.68;97.43
16255;BME280;8235;52.198;9.904;2022-11-15T07:04:38;100326.03;;;8.69;97.70
16255;BME280;8235;52.198;9.904;2022-11-15T07:07:04;100323.38;;;8.69;98.04
16255;BME280;8235;52.198;9.904;2022-11-15T07:09:32;100329.44;;;8.71;97.68
16255;BME280;8235;52.198;9.904;2022-11-15T07:11:59;100324.16;;;8.71;98.03
16255;BME280;8235;52.198;9.904;2022-11-15T07:14:25;100333.72;;;8.74;97.94
16255;BME280;8235;52.198;9.904;2022-11-15T07:16:51;100324.81;;;8.75;98.23
16255;BME280;8235;52.198;9.904;2022-11-15T07:19:18;100330.91;;;8.77;97.71
16255;BME280;8235;52.198;9.904;2022-11-15T07:21:44;100327.38;;;8.76;98.33
16255;BME280;8235;52.198;9.904;2022-11-15T07:24:11;100325.47;;;8.78;98.14
16255;BME280;8235;52.198;9.904;2022-11-15T07:26:39;100328.13;;;8.78;98.06
16255;BME280;8235;52.198;9.904;2022-11-15T07:29:06;100327.38;;;8.76;98.24
16255;BME280;8235;52.198;9.904;2022-11-15T07:31:32;100322.06;;;8.76;97.67
16255;BME280;8235;52.198;9.904;2022-11-15T07:33:59;100319.41;;;8.76;98.18
16255;BME280;8235;52.198;9.904;2022-11-15T07:36:25;100320.28;;;8.77;97.99
16255;BME280;8235;52.198;9.904;2022-11-15T07:38:52;100315.06;;;8.75;97.84
16255;BME280;8235;52.198;9.904;2022-11-15T07:41:18;100328.31;;;8.75;97.36
16255;BME280;8235;52.198;9.904;2022-11-15T07:43:46;100320.28;;;8.77;97.39
16255;BME280;8235;52.198;9.904;2022-11-15T07:46:13;100320.16;;;8.78;97.50
16255;BME280;8235;52.198;9.904;2022-11-15T07:48:39;100325.28;;;8.81;98.04
16255;BME280;8235;52.198;9.904;2022-11-15T07:51:06;100318.06;;;8.83;98.14
16255;BME280;8235;52.198;9.904;2022-11-15T07:53:35;100323.19;;;8.86;97.67
16255;BME280;8235;52.198;9.904;2022-11-15T07:56:01;100320.38;;;8.89;98.03
16255;BME280;8235;52.198;9.904;2022-11-15T07:58:28;100319.31;;;8.92;97.73
16255;BME280;8235;52.198;9.904;2022-11-15T08:00:56;100315.63;;;8.94;98.61
16255;BME280;8235;52.198;9.904;2022-11-15T08:03:22;100317.22;;;8.97;97.78
16255;BME280;8235;52.198;9.904;2022-11-15T08:05:50;100308.22;;;8.99;97.83
16255;BME280;8235;52.198;9.904;2022-11-15T08:08:17;100312.47;;;9.02;97.78
16255;BME280;8235;52.198;9.904;2022-11-15T08:10:44;100314.19;;;9.03;98.36
16255;BME280;8235;52.198;9.904;2022-11-15T08:13:11;100307.06;;;9.03;97.81
16255;BME280;8235;52.198;9.904;2022-11-15T08:15:38;100295.50;;;9.04;97.68
16255;BME280;8235;52.198;9.904;2022-11-15T08:18:09;100301.56;;;9.07;98.12
16255;BME280;8235;52.198;9.904;2022-11-15T08:20:36;100311.06;;;9.11;98.11
16255;BME280;8235;52.198;9.904;2022-11-15T08:23:04;100318.63;;;9.17;97.80
16255;BME280;8235;52.198;9.904;2022-11-15T08:25:32;100308.56;;;9.22;98.62
16255;BME280;8235;52.198;9.904;2022-11-15T08:28:01;100316.94;;;9.30;98.03
16255;BME280;8235;52.198;9.904;2022-11-15T08:30:28;100307.50;;;9.38;98.59
16255;BME280;8235;52.198;9.904;2022-11-15T08:32:57;100308.66;;;9.49;98.49
16255;BME280;8235;52.198;9.904;2022-11-15T08:35:25;100313.16;;;9.61;98.32
16255;BME280;8235;52.198;9.904;2022-11-15T08:37:52;100314.16;;;9.72;98.08
16255;BME280;8235;52.198;9.904;2022-11-15T08:40:19;100308.91;;;9.85;98.59
16255;BME280;8235;52.198;9.904;2022-11-15T08:42:46;100311.59;;;9.98;97.93
16255;BME280;8235;52.198;9.904;2022-11-15T08:45:12;100309.94;;;10.09;98.14
16255;BME280;8235;52.198;9.904;2022-11-15T08:47:39;100301.16;;;10.22;98.25
16255;BME280;8235;52.198;9.904;2022-11-15T08:50:06;100299.38;;;10.35;97.51
16255;BME280;8235;52.198;9.904;2022-11-15T08:52:34;100292.25;;;10.48;97.09
16255;BME280;8235;52.198;9.904;2022-11-15T08:55:01;100295.88;;;10.60;96.34
16255;BME280;8235;52.198;9.904;2022-11-15T08:57:28;100285.34;;;10.71;95.89
16255;BME280;8235;52.198;9.904;2022-11-15T08:59:55;100289.72;;;10.85;95.04
16255;BME280;8235;52.198;9.904;2022-11-15T09:02:21;100280.84;;;10.97;94.27
16255;BME280;8235;52.198;9.904;2022-11-15T09:04:48;100287.03;;;11.10;93.44
16255;BME280;8235;52.198;9.904;2022-11-15T09:07:14;100282.63;;;11.22;92.57
16255;BME280;8235;52.198;9.904;2022-11-15T09:09:42;100279.16;;;11.32;91.87
16255;BME280;8235;52.198;9.904;2022-11-15T09:12:09;100281.19;;;11.41;91.02
16255;BME280;8235;52.198;9.904;2022-11-15T09:14:35;100294.69;;;11.51;90.09
16255;BME280;8235;52.198;9.904;2022-11-15T09:17:02;100295.75;;;11.61;89.25
16255;BME280;8235;52.198;9.904;2022-11-15T09:19:28;100300.38;;;11.70;88.50
16255;BME280;8235;52.198;9.904;2022-11-15T09:21:55;100309.69;;;11.77;87.71
16255;BME280;8235;52.198;9.904;2022-11-15T09:24:21;100297.56;;;11.85;86.50
16255;BME280;8235;52.198;9.904;2022-11-15T09:26:51;100297.13;;;11.91;85.67
16255;BME280;8235;52.198;9.904;2022-11-15T09:29:17;100291.56;;;11.94;84.84
16255;BME280;8235;52.198;9.904;2022-11-15T09:31:44;100292.31;;;11.96;84.35
16255;BME280;8235;52.198;9.904;2022-11-15T09:34:11;100297.28;;;12.00;84.16
16255;BME280;8235;52.198;9.904;2022-11-15T09:36:37;100292.56;;;12.04;83.89
16255;BME280;8235;52.198;9.904;2022-11-15T09:39:04;100281.56;;;12.08;83.44
16255;BME280;8235;52.198;9.904;2022-11-15T09:41:40;100287.63;;;12.10;82.65
16255;BME280;8235;52.198;9.904;2022-11-15T09:44:25;100287.41;;;12.13;82.53
16255;BME280;8235;52.198;9.904;2022-11-15T09:47:01;100290.56;;;12.18;81.75
16255;BME280;8235;52.198;9.904;2022-11-15T09:49:29;100278.78;;;12.21;81.49
16255;BME280;8235;52.198;9.904;2022-11-15T09:51:56;100283.91;;;12.24;81.57
16255;BME280;8235;52.198;9.904;2022-11-15T09:54:29;100283.56;;;12.29;81.53
16255;BME280;8235;52.198;9.904;2022-11-15T09:57:03;100289.31;;;12.35;81.34
16255;BME280;8235;52.198;9.904;2022-11-15T09:59:46;100288.81;;;12.41;81.15
16255;BME280;8235;52.198;9.904;2022-11-15T10:02:23;100284.84;;;12.47;81.10
16255;BME280;8235;52.198;9.904;2022-11-15T10:04:56;100280.13;;;12.50;80.51
16255;BME280;8235;52.198;9.904;2022-11-15T10:07:28;100276.22;;;12.55;79.85
16255;BME280;8235;52.198;9.904;2022-11-15T10:10:02;100280.47;;;12.57;80.02
16255;BME280;8235;52.198;9.904;2022-11-15T10:12:34;100279.25;;;12.61;79.56
16255;BME280;8235;52.198;9.904;2022-11-15T10:15:05;100275.50;;;12.64;79.82
16255;BME280;8235;52.198;9.904;2022-11-15T10:17:57;100268.13;;;12.67;79.49
16255;BME280;8235;52.198;9.904;2022-11-15T10:20:26;100272.50;;;12.68;79.51
16255;BME280;8235;52.198;9.904;2022-11-15T10:22:55;100262.53;;;12.70;79.08
16255;BME280;8235;52.198;9.904;2022-11-15T10:25:24;100262.41;;;12.72;79.00
16255;BME280;8235;52.198;9.904;2022-11-15T10:27:54;100270.28;;;12.73;78.92
16255;BME280;8235;52.198;9.904;2022-11-15T10:30:23;100262.16;;;12.75;78.40
16255;BME280;8235;52.198;9.904;2022-11-15T10:32:55;100263.63;;;12.79;78.44
16255;BME280;8235;52.198;9.904;2022-11-15T10:35:25;100269.81;;;12.79;78.26
16255;BME280;8235;52.198;9.904;2022-11-15T10:38:04;100269.81;;;12.79;78.04
16255;BME280;8235;52.198;9.904;2022-11-15T10:40:30;100254.63;;;12.80;77.55
16255;BME280;8235;52.198;9.904;2022-11-15T10:43:05;100255.38;;;12.82;77.77
16255;BME280;8235;52.198;9.904;2022-11-15T10:49:13;100245.41;;;12.84;77.24
16255;BME280;8235;52.198;9.904;2022-11-15T10:51:43;100252.69;;;12.82;77.50
16255;BME280;8235;52.198;9.904;2022-11-15T10:54:12;100242.84;;;12.82;77.23
16255;BME280;8235;52.198;9.904;2022-11-15T10:56:40;100241.03;;;12.83;77.43
16255;BME280;8235;52.198;9.904;2022-11-15T10:59:15;100235.56;;;12.84;77.25
16255;BME280;8235;52.198;9.904;2022-11-15T11:01:46;100240.78;;;12.86;77.43
16255;BME280;8235;52.198;9.904;2022-11-15T11:04:14;100233.75;;;12.85;77.62
16255;BME280;8235;52.198;9.904;2022-11-15T11:06:49;100232.78;;;12.86;77.24
16255;BME280;8235;52.198;9.904;2022-11-15T11:09:28;100233.63;;;12.86;77.63
16255;BME280;8235;52.198;9.904;2022-11-15T11:11:55;100230.97;;;12.86;77.38
16255;BME280;8235;52.198;9.904;2022-11-15T11:14:23;100232.78;;;12.86;77.44
16255;BME280;8235;52.198;9.904;2022-11-15T11:16:54;100228.41;;;12.85;77.47
16255;BME280;8235;52.198;9.904;2022-11-15T11:19:39;100225.00;;;12.83;76.98
16255;BME280;8235;52.198;9.904;2022-11-15T11:22:17;100217.84;;;12.83;76.89
16255;BME280;8235;52.198;9.904;2022-11-15T11:24:49;100220.50;;;12.83;77.08
16255;BME280;8235;52.198;9.904;2022-11-15T11:27:26;100211.53;;;12.84;76.99
16255;BME280;8235;52.198;9.904;2022-11-15T11:30:04;100213.22;;;12.85;77.02
16255;BME280;8235;52.198;9.904;2022-11-15T11:32:56;100213.94;;;12.88;77.39
16255;BME280;8235;52.198;9.904;2022-11-15T11:35:30;100211.41;;;12.86;77.46
16255;BME280;8235;52.198;9.904;2022-11-15T11:38:11;100208.59;;;12.88;77.05
16255;BME280;8235;52.198;9.904;2022-11-15T11:40:44;100209.47;;;12.88;77.31
16255;BME280;8235;52.198;9.904;2022-11-15T11:43:24;100209.34;;;12.90;77.02
16255;BME280;8235;52.198;9.904;2022-11-15T11:46:09;100203.84;;;12.91;77.10
16255;BME280;8235;52.198;9.904;2022-11-15T11:48:41;100209.06;;;12.93;77.06
16255;BME280;8235;52.198;9.904;2022-11-15T11:51:15;100206.38;;;12.93;77.43
16255;BME280;8235;52.198;9.904;2022-11-15T11:53:48;100203.84;;;12.91;77.27
16255;BME280;8235;52.198;9.904;2022-11-15T11:56:23;100203.84;;;12.91;76.89
16255;BME280;8235;52.198;9.904;2022-11-15T11:58:52;100198.66;;;12.90;76.32
16255;BME280;8235;52.198;9.904;2022-11-15T12:01:23;100202.13;;;12.90;76.48
16255;BME280;8235;52.198;9.904;2022-11-15T12:03:53;100202.88;;;12.92;76.32
16255;BME280;8235;52.198;9.904;2022-11-15T12:06:30;100197.53;;;12.92;76.19
16255;BME280;8235;52.198;9.904;2022-11-15T12:09:01;100202.00;;;12.92;76.41
16255;BME280;8235;52.198;9.904;2022-11-15T12:11:36;100180.50;;;12.93;76.21
16255;BME280;8235;52.198;9.904;2022-11-15T12:14:07;100175.16;;;12.93;75.99
16255;BME280;8235;52.198;9.904;2022-11-15T12:16:38;100175.91;;;12.95;76.06
16255;BME280;8235;52.198;9.904;2022-11-15T12:19:07;100174.81;;;12.98;76.16
16255;BME280;8235;52.198;9.904;2022-11-15T12:21:39;100173.84;;;12.99;75.56
16255;BME280;8235;52.198;9.904;2022-11-15T12:24:14;100168.50;;;12.99;75.89
16255;BME280;8235;52.198;9.904;2022-11-15T12:26:55;100172.75;;;13.01;75.38
16255;BME280;8235;52.198;9.904;2022-11-15T12:29:27;100170.78;;;13.03;75.36
16255;BME280;8235;52.198;9.904;2022-11-15T12:31:58;100171.66;;;13.04;75.20
16255;BME280;8235;52.198;9.904;2022-11-15T12:34:36;100168.00;;;13.05;75.55
16255;BME280;8235;52.198;9.904;2022-11-15T12:40:32;100170.16;;;13.11;75.75
16255;BME280;8235;52.198;9.904;2022-11-15T12:43:03;100163.00;;;13.11;75.40
16255;BME280;8235;52.198;9.904;2022-11-15T12:45:31;100161.03;;;13.13;75.55
16255;BME280;8235;52.198;9.904;2022-11-15T12:51:03;100148.44;;;13.15;75.30
16255;BME280;8235;52.198;9.904;2022-11-15T12:53:30;100141.34;;;13.14;75.36
16255;BME280;8235;52.198;9.904;2022-11-15T12:56:23;100138.59;;;13.16;75.07
16255;BME280;8235;52.198;9.904;2022-11-15T12:58:53;100132.25;;;13.17;74.99
16255;BME280;8235;52.198;9.904;2022-11-15T13:01:57;100128.50;;;13.19;75.13
16255;BME280;8235;52.198;9.904;2022-11-15T13:04:27;100130.06;;;13.22;75.51
16255;BME280;8235;52.198;9.904;2022-11-15T13:06:56;100125.44;;;13.24;75.26
16255;BME280;8235;52.198;9.904;2022-11-15T13:09:50;100126.03;;;13.28;75.40
16255;BME280;8235;52.198;9.904;2022-11-15T13:12:52;100124.06;;;13.30;74.75
16255;BME280;8235;52.198;9.904;2022-11-15T13:15:45;100116.66;;;13.33;75.23
16255;BME280;8235;52.198;9.904;2022-11-15T13:18:41;100112.88;;;13.36;74.81
16255;BME280;8235;52.198;9.904;2022-11-15T13:21:20;100111.53;;;13.41;74.89
16255;BME280;8235;52.198;9.904;2022-11-15T13:24:09;100104.22;;;13.43;74.61
16255;BME280;8235;52.198;9.904;2022-11-15T13:26:38;100109.28;;;13.46;74.86
16255;BME280;8235;52.198;9.904;2022-11-15T13:29:14;100099.44;;;13.47;74.52
16255;BME280;8235;52.198;9.904;2022-11-15T13:31:43;100099.19;;;13.50;74.45
16255;BME280;8235;52.198;9.904;2022-11-15T13:34:27;100098.09;;;13.52;74.33